Airfield :
LOGIN :

Register | Disclaimer

   EN    FR    IT 

 










Legend :    VFR   Marginal VFR   IFR   Intensive IFR   Very Intensive IFR
Visi :
Ceiling :
>= 8 km
>= 3000ft
5 to 8 km
1000 to 3000 ft
1500m to 5 km
500 to 1000 ft
800 to 1500m
200 to 500 ft
< 800m
< 200 ft
Symbols :   Thunderstorms  Fog  Heavy snow  Heavy precipitations  Wind > 20 kt
SIGMETs :     Misc.  Thunderstorms  Icing  Turbulence  Mountain Waves  Volcanic Ashes







- Airport Elevation : 154 ft
- IATA code : SZZ


EPSC - Szczecin Goleniow

CURRENT METAR :
  • 130830Z 03003KT 8000 FEW003 SCT004 BKN032 01/00 Q1025 R13/72//95

EXPIRED METARs :
  • 130800Z 04004KT 350V070 8000 BKN003 01/00 Q1025 R13/72//95
  • 130730Z 03003KT 360V070 8000 FEW032 01/00 Q1025 R13/72//95
  • 130700Z 07005KT 8000 NSC 01/00 Q1025 R13/72//95
  • 130630Z 05005KT 8000 BKN003 BKN004 01/00 Q1025 R13/72//95
  • 130600Z 05005KT 010V070 8000 BKN003 OVC004 00/00 Q1025 R13/72//95

TAF AMD TAF EPSC
Valid from the 13 at 06:00 until the 14 at 06:00 UTC


130608Z 1306/1406 06003KT 9999 SCT015
TEMPO 1306/1309 3000 BR BKN003 BKN005
TEMPO 1309/1402 2000 SHSNRA BKN005 BKN010CB
PROB40
TEMPO 1310/1324 1200 SN BR BKN003
PROB40 1402/1406 3000 BR BKN003
No reported NOTAMs for that airfield.



MET'MAP, your aeronautical weather chart ! - Copyright ORBIFLY December 2007 - Disclaimer

ORBIFLY MET'MAP TEAM :

Programming & Development : Alexandra Zaïnal
Concept & Development : Baudouin d'Aumeries
Co-Development & Prog : Marc-Olivier Méhu
Technical & hardware support : Manuel Goepfert

Contact : metmap@orbifly.com




SOURCES & CREDITS :

   NOAA